Metar Cercanos

 

LEPA - Palma De Mallorc, Spain
Distance from station: ONO 38km
Actualización: Mon, 18-Jan-2021 11:00am CET
Few Clouds
Few Clouds
 Viento del ENE
Viento: ENE 7 km/h
Temperatura: 12°C
Rocío: 6°C
Humedad: 67%
Barómetro: 1028 hPa
Clouds: Few Clouds
Visibility: 10 km
Cloud details: Few Clouds 1707 m
2021/01/18 10:00 LEPA 181000Z 07004KT 030V100 9999 FEW056 12/06 Q1028 NOSIG
LEMH - Mahon/Menorca Is, Spain
Distance from station: ENE 105km
Actualización: Mon, 18-Jan-2021 11:00am CET
Few Clouds
Few Clouds
 Viento del N
Viento: N 17 km/h
Temperatura: 12°C
Rocío: 5°C
Humedad: 63%
Barómetro: 1028 hPa
Clouds: Few Clouds
Visibility: 10 km
Cloud details: Few Clouds 1219 m
2021/01/18 10:00 LEMH 181000Z 01009KT 320V050 9999 FEW040 12/05 Q1028
 
LEIB - Ibiza/Es Codola, Spain
Distance from station: OSO 165km
Actualización: Mon, 18-Jan-2021 11:00am CET
Parcialmente nuboso
Parcialmente nuboso
 Viento del E
Viento: E 13 km/h
Temperatura: 14°C
Rocío: 8°C
Humedad: 67%
Barómetro: 1028 hPa
Clouds: Parcialmente nuboso
Visibility: 10 km
Cloud details: Few Clouds 671 m
Parcialmente nuboso 1372 m
2021/01/18 10:00 LEIB 181000Z 09007KT 060V120 9999 FEW022 SCT045 14/08 Q1028 NOSIG
LEBL - Barcelona Airpor, Spain
Distance from station: NNO 225km
Actualización: Mon, 18-Jan-2021 11:00am CET
Muy nuboso
Muy nuboso
 Viento del NO
Viento: NO 9 km/h
Temperatura: 10°C
Sensación frio: 9°C
Rocío: 5°C
Humedad: 71%
Barómetro: 1028 hPa
Clouds: Muy nuboso
Visibility: 10 km
Cloud details: Few Clouds 853 m
Parcialmente nuboso 1097 m
Muy nuboso 1311 m
2021/01/18 10:00 LEBL 181000Z 32005KT 300V360 9999 FEW028 SCT036 BKN043 10/05 Q1028 NOSIG
 
LEVC - Valencia (civ/Mi, Spain
Distance from station: NO 188km
Actualización: Mon, 18-Jan-2021 11:00am CET
Few Clouds
Few Clouds
 Viento del NO
Viento: NO 9 km/h
Temperatura: 12°C
Rocío: 5°C
Humedad: 63%
Barómetro: 1029 hPa
Clouds: Few Clouds
Visibility: 10 km
Cloud details: Few Clouds 762 m
2021/01/18 10:00 LEVC 181000Z 31005KT 9999 FEW025 12/05 Q1029 NOSIG
LEGE - Gerona/Costa Bra, Spain
Distance from station: N 276km
Actualización: Mon, 18-Jan-2021 11:00am CET
Few Clouds
Few Clouds
 Viento del calm
Viento: Calma
Temperatura: 6°C
Rocío: 2°C
Humedad: 76%
Barómetro: 1028 hPa
Clouds: Few Clouds
Visibility: 10 km
Cloud details: Few Clouds 1219 m
2021/01/18 10:00 LEGE 181000Z 00000KT 9999 FEW040 06/02 Q1028
 
LEAL - Alicante/El Alte, Spain
Distance from station: OSO 344km
Actualización: Mon, 18-Jan-2021 11:00am CET
Despejado
Despejado
 Viento del ONO
Viento: ONO 9 km/h
Temperatura: 15°C
Rocío: 3°C
Humedad: 45%
Barómetro: 1028 hPa
Resumen: Despejado
Visibility: greater than 10 km
2021/01/18 10:00 LEAL 181000Z 29005KT 260V320 CAVOK 15/03 Q1028 NOSIG
LEAM - Almeria Airport, Spain
Distance from station: SSO 56km
Actualización: Mon, 18-Jan-2021 11:00am CET
Despejado
Despejado
 Viento del calm
Viento: Calma
Temperatura: 17°C
Rocío: 6°C
Humedad: 49%
Barómetro: 1028 hPa
Resumen: Despejado
Visibility: greater than 10 km
2021/01/18 10:00 LEAM 181000Z 00000KT CAVOK 17/06 Q1028
 
LEZG - Zaragoza (mil/Ci, Spain
Distance from station: NO 431km
Actualización: Mon, 18-Jan-2021 11:00am CET
Despejado
Despejado
 Viento del O
Viento: O 26 km/h
Temperatura: 11°C
Rocío: 6°C
Humedad: 72%
Barómetro: 1028 hPa
Resumen: Despejado
Visibility: greater than 10 km
2021/01/18 10:00 LEZG 181000Z 28014KT CAVOK 11/06 Q1028
LEMD - Madrid/Barajas, Spain
Distance from station: ONO 234km
Actualización: Mon, 18-Jan-2021 11:00am CET
Despejado
Despejado
 Viento del varies
Viento: varies 2 km/h
Temperatura: -3°C
Rocío: -5°C
Humedad: 86%
Barómetro: 1029 hPa
Resumen: Despejado
Visibility: greater than 10 km
2021/01/18 10:00 LEMD 181000Z VRB01KT CAVOK M03/M05 Q1029 NOSIG
 
LEGR - Granada Airport, Spain
Distance from station: OSO 62km
Actualización: Mon, 18-Jan-2021 11:00am CET
Despejado
Despejado
 Viento del calm
Viento: Calma
Temperatura: 4°C
Rocío: 0°C
Humedad: 75%
Barómetro: 1028 hPa
Resumen: Despejado
Visibility: greater than 10 km
2021/01/18 10:00 LEGR 181000Z 00000KT CAVOK 04/00 Q1028
LEMG - Malaga (civ/Mil), Spain
Distance from station: OSO 227km
Actualización: Mon, 18-Jan-2021 11:00am CET
Parcialmente nuboso
Parcialmente nuboso
 Viento del NO
Viento: NO 7 km/h
Temperatura: 10°C
Sensación frio: 9°C
Rocío: 6°C
Humedad: 76%
Barómetro: 1028 hPa
Clouds: Parcialmente nuboso
Visibility: 10 km
Cloud details: Parcialmente nuboso 244 m
2021/01/18 10:00 LEMG 181000Z 31004KT 9999 SCT008 10/06 Q1028 NOSIG
 
LEZL - Sevilla (civ/Mil, Spain
Distance from station: S 318km
Actualización: Mon, 18-Jan-2021 11:00am CET
Despejado
Despejado
 Viento del NE
Viento: NE 7 km/h
Temperatura: 7°C
Sensación frio: 6°C
Rocío: 2°C
Humedad: 71%
Barómetro: 1028 hPa
Resumen: Despejado
Visibility: greater than 10 km
2021/01/18 10:00 LEZL 181000Z 04004KT CAVOK 07/02 Q1028 NOSIG
LEVT - Vitoria, Spain
Distance from station: NO 226km
Actualización: Mon, 18-Jan-2021 11:00am CET
Patches of fog, Mist, Muy nuboso
Patches of fog, Mist, Muy nuboso
 Viento del varies
Viento: varies 4 km/h
Temperatura: 6°C
Rocío: 6°C
Humedad: 100%
Barómetro: 1028 hPa
Resumen: Patches of fog, Mist
Clouds: Muy nuboso
Visibility: 4 km
Cloud details: Few Clouds 61 m
Muy nuboso 183 m
2021/01/18 10:00 LEVT 181000Z VRB02KT 4000 BCFG BR FEW002 BKN006 06/06 Q1028
 
LEBB - Bilbao/Sondica, Spain
Distance from station: NNO 235km
Actualización: Mon, 18-Jan-2021 11:00am CET
Muy nuboso
Muy nuboso
 Viento del ESE
Viento: ESE 7 km/h
Temperatura: 9°C
Sensación frio: 8°C
Rocío: 9°C
Humedad: 100%
Barómetro: 1029 hPa
Clouds: Muy nuboso
Visibility: 10 km
Cloud details: Few Clouds 213 m
Parcialmente nuboso 396 m
Muy nuboso 914 m
2021/01/18 10:00 LEBB 181000Z 11004KT 080V140 9999 FEW007 SCT013 BKN030 09/09 Q1029 TEMPO 3000 BR
LESO - San Sebastian/Fu, Spain
Distance from station: N 231km
Actualización: Mon, 18-Jan-2021 11:00am CET
Despejado
Despejado
 Viento del varies
Viento: varies 2 km/h
Temperatura: 8°C
Rocío: 7°C
Humedad: 93%
Barómetro: 1030 hPa
Resumen: Despejado
Visibility: greater than 10 km
2021/01/18 10:00 LESO 181000Z VRB01KT CAVOK 08/07 Q1030
 
LEVD - Valladolid(Mil/C, Spain
Distance from station: ONO 239km
Actualización: Mon, 18-Jan-2021 11:00am CET
Parcialmente nuboso
Parcialmente nuboso
 Viento del ESE
Viento: ESE 6 km/h
Temperatura: 0°C
Rocío: 0°C
Humedad: 100%
Barómetro: 1028 hPa
Clouds: Parcialmente nuboso
Visibility: 9 km
2021/01/18 10:00 LEVD 181000Z 11003KT 080V160 9000 NSC 00/M00 Q1028
LESA - Salamanca (civ/M, Spain
Distance from station: ONO 349km
Actualización: Mon, 18-Jan-2021 11:00am CET
Despejado
Despejado
 Viento del varies
Viento: varies 2 km/h
Temperatura: 0°C
Rocío: -3°C
Humedad: 80%
Barómetro: 1029 hPa
Resumen: Despejado
Visibility: greater than 10 km
2021/01/18 10:00 LESA 181000Z VRB01KT CAVOK M00/M03 Q1029
 
LEXJ - Santander/Paraya, Spain
Distance from station: NNO 247km
Actualización: Mon, 18-Jan-2021 11:00am CET
Muy nuboso
Muy nuboso
 Viento del E
Viento: E 6 km/h
Temperatura: 10°C
Rocío: 10°C
Humedad: 100%
Barómetro: 1029 hPa
Clouds: Muy nuboso
Visibility: 10 km
Cloud details: Muy nuboso 610 m
2021/01/18 10:00 LEXJ 181000Z 09003KT 050V110 9999 BKN020 10/10 Q1029
LEAS - Asturias/Aviles, Spain
Distance from station: NO 214km
Actualización: Mon, 18-Jan-2021 11:00am CET
Muy nuboso
Muy nuboso
 Viento del varies
Viento: varies 2 km/h
Temperatura: 9°C
Rocío: 8°C
Humedad: 94%
Barómetro: 1028 hPa
Clouds: Muy nuboso
Visibility: 10 km
Cloud details: Few Clouds 30 m
Muy nuboso 640 m
2021/01/18 10:00 LEAS 181000Z VRB01KT 9999 2500E FEW001 BKN021 09/08 Q1028 TEMPO 3000 -RADZ BKN010
 
LECO - La Coruna/Alvedr, Spain
Distance from station: ONO 222km
Actualización: Mon, 18-Jan-2021 11:00am CET
Despejado
Despejado
 Viento del SSE
Viento: SSE 6 km/h
Temperatura: 10°C
Rocío: 10°C
Humedad: 100%
Barómetro: 1028 hPa
Resumen: Despejado
Visibility: greater than 10 km
2021/01/18 10:00 LECO 181000Z 16003KT 120V190 CAVOK 10/10 Q1028 NOSIG
LEVX - Vigo/Peinador, Spain
Distance from station: O 214km
Actualización: Mon, 18-Jan-2021 11:00am CET
Niebla, Cubierto
Niebla, Cubierto
 Viento del SSO
Viento: SSO 17 km/h
Temperatura: 5°C
Sensación frio: 2°C
Rocío: 5°C
Humedad: 100%
Barómetro: 1027 hPa
Resumen: Niebla
Clouds: Cubierto
Visibility: 0 km
Cloud details: Cubierto 30 m
2021/01/18 10:00 LEVX 181000Z 20009KT 170V230 0250 R19/0650N R01/0275N FG VV001 05/05 Q1027 TEMPO 0500